sensor_id;sensor_type;location;lat;lon;timestamp;P1;durP1;ratioP1;P2;durP2;ratioP2
69750;SDS011;57335;52.288;6.056;2023-01-28T00:01:13;11.38;;;3.67;;
69750;SDS011;57335;52.288;6.056;2023-01-28T00:03:41;12.98;;;4.38;;
69750;SDS011;57335;52.288;6.056;2023-01-28T00:06:09;13.80;;;4.25;;
69750;SDS011;57335;52.288;6.056;2023-01-28T00:08:38;13.15;;;4.20;;
69750;SDS011;57335;52.288;6.056;2023-01-28T00:11:05;12.60;;;4.03;;
69750;SDS011;57335;52.288;6.056;2023-01-28T00:13:32;11.55;;;4.03;;
69750;SDS011;57335;52.288;6.056;2023-01-28T00:16:00;11.77;;;3.97;;
69750;SDS011;57335;52.288;6.056;2023-01-28T00:18:30;9.40;;;3.25;;
69750;SDS011;57335;52.288;6.056;2023-01-28T00:20:58;11.25;;;3.85;;
69750;SDS011;57335;52.288;6.056;2023-01-28T00:23:33;11.18;;;4.07;;
69750;SDS011;57335;52.288;6.056;2023-01-28T00:26:01;11.55;;;3.88;;
69750;SDS011;57335;52.288;6.056;2023-01-28T00:28:30;12.13;;;4.50;;
69750;SDS011;57335;52.288;6.056;2023-01-28T00:33:22;12.10;;;3.55;;
69750;SDS011;57335;52.288;6.056;2023-01-28T00:35:58;13.77;;;4.50;;
69750;SDS011;57335;52.288;6.056;2023-01-28T00:38:26;10.75;;;3.55;;
69750;SDS011;57335;52.288;6.056;2023-01-28T00:40:53;11.07;;;3.53;;
69750;SDS011;57335;52.288;6.056;2023-01-28T00:43:20;12.23;;;4.40;;
69750;SDS011;57335;52.288;6.056;2023-01-28T00:45:47;9.70;;;3.42;;
69750;SDS011;57335;52.288;6.056;2023-01-28T00:48:15;13.63;;;3.60;;
69750;SDS011;57335;52.288;6.056;2023-01-28T00:53:09;12.45;;;3.92;;
69750;SDS011;57335;52.288;6.056;2023-01-28T00:58:01;8.13;;;2.33;;
69750;SDS011;57335;52.288;6.056;2023-01-28T01:00:28;11.15;;;3.97;;
69750;SDS011;57335;52.288;6.056;2023-01-28T01:05:20;12.38;;;3.95;;
69750;SDS011;57335;52.288;6.056;2023-01-28T01:07:47;13.45;;;4.20;;
69750;SDS011;57335;52.288;6.056;2023-01-28T01:12:41;11.13;;;4.15;;
69750;SDS011;57335;52.288;6.056;2023-01-28T01:15:08;13.27;;;4.65;;
69750;SDS011;57335;52.288;6.056;2023-01-28T01:17:38;13.85;;;4.50;;
69750;SDS011;57335;52.288;6.056;2023-01-28T01:20:08;12.23;;;4.40;;
69750;SDS011;57335;52.288;6.056;2023-01-28T01:22:39;12.77;;;4.38;;
69750;SDS011;57335;52.288;6.056;2023-01-28T01:27:32;13.60;;;4.65;;
69750;SDS011;57335;52.288;6.056;2023-01-28T01:29:59;13.52;;;4.85;;
69750;SDS011;57335;52.288;6.056;2023-01-28T01:32:29;12.82;;;4.65;;
69750;SDS011;57335;52.288;6.056;2023-01-28T01:34:57;13.75;;;4.57;;
69750;SDS011;57335;52.288;6.056;2023-01-28T01:39:49;14.05;;;4.70;;
69750;SDS011;57335;52.288;6.056;2023-01-28T01:42:16;13.82;;;5.03;;
69750;SDS011;57335;52.288;6.056;2023-01-28T01:47:18;13.95;;;4.43;;
69750;SDS011;57335;52.288;6.056;2023-01-28T01:49:49;12.15;;;4.30;;
69750;SDS011;57335;52.288;6.056;2023-01-28T01:52:17;10.20;;;3.78;;
69750;SDS011;57335;52.288;6.056;2023-01-28T01:54:46;12.27;;;4.40;;
69750;SDS011;57335;52.288;6.056;2023-01-28T01:57:20;13.18;;;4.13;;
69750;SDS011;57335;52.288;6.056;2023-01-28T01:59:50;13.43;;;4.13;;
69750;SDS011;57335;52.288;6.056;2023-01-28T02:02:17;13.40;;;4.90;;
69750;SDS011;57335;52.288;6.056;2023-01-28T02:04:44;13.70;;;4.28;;
69750;SDS011;57335;52.288;6.056;2023-01-28T02:09:38;12.27;;;3.90;;
69750;SDS011;57335;52.288;6.056;2023-01-28T02:14:38;13.80;;;4.60;;
69750;SDS011;57335;52.288;6.056;2023-01-28T02:17:09;12.20;;;3.85;;
69750;SDS011;57335;52.288;6.056;2023-01-28T02:19:40;11.18;;;4.13;;
69750;SDS011;57335;52.288;6.056;2023-01-28T02:33:28;12.52;;;3.92;;
69750;SDS011;57335;52.288;6.056;2023-01-28T02:36:09;7.68;;;2.83;;
69750;SDS011;57335;52.288;6.056;2023-01-28T02:38:44;12.98;;;4.90;;
69750;SDS011;57335;52.288;6.056;2023-01-28T02:41:32;13.50;;;4.15;;
69750;SDS011;57335;52.288;6.056;2023-01-28T02:44:04;12.60;;;4.10;;
69750;SDS011;57335;52.288;6.056;2023-01-28T02:48:57;4.63;;;1.73;;
69750;SDS011;57335;52.288;6.056;2023-01-28T02:54:13;14.68;;;4.57;;
69750;SDS011;57335;52.288;6.056;2023-01-28T02:57:03;8.38;;;3.08;;
69750;SDS011;57335;52.288;6.056;2023-01-28T02:59:48;8.38;;;2.35;;
69750;SDS011;57335;52.288;6.056;2023-01-28T03:02:28;13.23;;;3.35;;
69750;SDS011;57335;52.288;6.056;2023-01-28T03:05:16;5.70;;;1.50;;
69750;SDS011;57335;52.288;6.056;2023-01-28T03:07:46;5.10;;;1.85;;
69750;SDS011;57335;52.288;6.056;2023-01-28T03:10:14;13.30;;;4.30;;
69750;SDS011;57335;52.288;6.056;2023-01-28T03:12:45;11.10;;;3.50;;
69750;SDS011;57335;52.288;6.056;2023-01-28T03:15:18;13.35;;;4.57;;
69750;SDS011;57335;52.288;6.056;2023-01-28T03:17:48;12.85;;;4.53;;
69750;SDS011;57335;52.288;6.056;2023-01-28T03:20:20;12.10;;;3.85;;
69750;SDS011;57335;52.288;6.056;2023-01-28T03:22:50;10.23;;;3.13;;
69750;SDS011;57335;52.288;6.056;2023-01-28T03:25:20;12.13;;;4.30;;
69750;SDS011;57335;52.288;6.056;2023-01-28T03:27:52;14.93;;;4.78;;
69750;SDS011;57335;52.288;6.056;2023-01-28T03:30:24;11.50;;;3.90;;
69750;SDS011;57335;52.288;6.056;2023-01-28T03:32:55;12.88;;;4.45;;
69750;SDS011;57335;52.288;6.056;2023-01-28T03:35:22;14.05;;;4.88;;
69750;SDS011;57335;52.288;6.056;2023-01-28T03:37:53;13.43;;;4.35;;
69750;SDS011;57335;52.288;6.056;2023-01-28T03:40:20;13.40;;;4.88;;
69750;SDS011;57335;52.288;6.056;2023-01-28T03:45:12;10.75;;;3.08;;
69750;SDS011;57335;52.288;6.056;2023-01-28T03:47:39;5.30;;;2.30;;
69750;SDS011;57335;52.288;6.056;2023-01-28T03:52:32;8.30;;;2.53;;
69750;SDS011;57335;52.288;6.056;2023-01-28T03:54:59;9.30;;;3.15;;
69750;SDS011;57335;52.288;6.056;2023-01-28T03:59:53;9.05;;;2.38;;
69750;SDS011;57335;52.288;6.056;2023-01-28T04:02:20;15.55;;;4.95;;
69750;SDS011;57335;52.288;6.056;2023-01-28T04:04:47;13.45;;;4.90;;
69750;SDS011;57335;52.288;6.056;2023-01-28T04:09:40;7.20;;;2.97;;
69750;SDS011;57335;52.288;6.056;2023-01-28T04:12:08;8.35;;;2.72;;
69750;SDS011;57335;52.288;6.056;2023-01-28T04:14:35;10.27;;;3.53;;
69750;SDS011;57335;52.288;6.056;2023-01-28T04:17:01;14.75;;;5.03;;
69750;SDS011;57335;52.288;6.056;2023-01-28T04:19:27;12.18;;;3.95;;
69750;SDS011;57335;52.288;6.056;2023-01-28T04:24:21;11.48;;;3.88;;
69750;SDS011;57335;52.288;6.056;2023-01-28T04:26:48;13.05;;;4.68;;
69750;SDS011;57335;52.288;6.056;2023-01-28T04:29:14;13.85;;;4.47;;
69750;SDS011;57335;52.288;6.056;2023-01-28T04:31:40;14.00;;;5.15;;
69750;SDS011;57335;52.288;6.056;2023-01-28T04:36:33;9.27;;;3.15;;
69750;SDS011;57335;52.288;6.056;2023-01-28T04:38:59;16.63;;;5.95;;
69750;SDS011;57335;52.288;6.056;2023-01-28T04:43:52;14.07;;;4.90;;
69750;SDS011;57335;52.288;6.056;2023-01-28T04:46:19;14.07;;;5.30;;
69750;SDS011;57335;52.288;6.056;2023-01-28T04:51:12;15.55;;;5.32;;
69750;SDS011;57335;52.288;6.056;2023-01-28T04:53:38;15.38;;;6.00;;
69750;SDS011;57335;52.288;6.056;2023-01-28T04:58:31;16.35;;;6.03;;
69750;SDS011;57335;52.288;6.056;2023-01-28T05:03:24;15.05;;;5.45;;
69750;SDS011;57335;52.288;6.056;2023-01-28T05:05:51;14.68;;;5.43;;
69750;SDS011;57335;52.288;6.056;2023-01-28T05:08:18;16.05;;;5.88;;
69750;SDS011;57335;52.288;6.056;2023-01-28T05:10:44;15.27;;;5.63;;
69750;SDS011;57335;52.288;6.056;2023-01-28T05:13:11;16.45;;;5.65;;
69750;SDS011;57335;52.288;6.056;2023-01-28T05:18:03;13.70;;;4.95;;
69750;SDS011;57335;52.288;6.056;2023-01-28T05:20:30;16.30;;;6.38;;
69750;SDS011;57335;52.288;6.056;2023-01-28T05:22:56;14.07;;;5.07;;
69750;SDS011;57335;52.288;6.056;2023-01-28T05:27:51;15.13;;;5.25;;
69750;SDS011;57335;52.288;6.056;2023-01-28T05:30:18;15.50;;;5.22;;
69750;SDS011;57335;52.288;6.056;2023-01-28T05:32:46;16.05;;;5.40;;
69750;SDS011;57335;52.288;6.056;2023-01-28T05:35:13;16.35;;;6.15;;
69750;SDS011;57335;52.288;6.056;2023-01-28T05:37:40;17.02;;;6.60;;
69750;SDS011;57335;52.288;6.056;2023-01-28T05:42:33;14.70;;;5.10;;
69750;SDS011;57335;52.288;6.056;2023-01-28T05:47:26;13.30;;;4.72;;
69750;SDS011;57335;52.288;6.056;2023-01-28T05:52:19;12.63;;;4.20;;
69750;SDS011;57335;52.288;6.056;2023-01-28T05:57:11;12.23;;;4.43;;
69750;SDS011;57335;52.288;6.056;2023-01-28T06:02:04;12.63;;;4.20;;
69750;SDS011;57335;52.288;6.056;2023-01-28T06:04:30;14.65;;;5.43;;
69750;SDS011;57335;52.288;6.056;2023-01-28T06:09:23;14.38;;;4.75;;
69750;SDS011;57335;52.288;6.056;2023-01-28T06:14:16;14.95;;;5.35;;
69750;SDS011;57335;52.288;6.056;2023-01-28T06:19:08;11.27;;;4.55;;
69750;SDS011;57335;52.288;6.056;2023-01-28T06:21:35;13.13;;;5.00;;
69750;SDS011;57335;52.288;6.056;2023-01-28T06:26:27;16.45;;;5.45;;
69750;SDS011;57335;52.288;6.056;2023-01-28T06:28:54;15.77;;;5.72;;
69750;SDS011;57335;52.288;6.056;2023-01-28T06:31:20;16.85;;;5.75;;
69750;SDS011;57335;52.288;6.056;2023-01-28T06:33:47;15.38;;;5.82;;
69750;SDS011;57335;52.288;6.056;2023-01-28T06:38:39;15.02;;;5.90;;
69750;SDS011;57335;52.288;6.056;2023-01-28T06:41:06;16.45;;;5.93;;
69750;SDS011;57335;52.288;6.056;2023-01-28T06:45:58;15.70;;;6.00;;
69750;SDS011;57335;52.288;6.056;2023-01-28T06:48:26;14.27;;;5.05;;
69750;SDS011;57335;52.288;6.056;2023-01-28T06:50:53;13.75;;;5.35;;
69750;SDS011;57335;52.288;6.056;2023-01-28T06:55:46;13.65;;;5.05;;
69750;SDS011;57335;52.288;6.056;2023-01-28T07:00:39;14.07;;;4.43;;
69750;SDS011;57335;52.288;6.056;2023-01-28T07:05:32;10.15;;;3.58;;
69750;SDS011;57335;52.288;6.056;2023-01-28T07:10:24;7.55;;;2.45;;
69750;SDS011;57335;52.288;6.056;2023-01-28T07:12:51;13.98;;;4.78;;
69750;SDS011;57335;52.288;6.056;2023-01-28T07:15:17;13.48;;;4.28;;
69750;SDS011;57335;52.288;6.056;2023-01-28T07:17:44;11.02;;;3.90;;
69750;SDS011;57335;52.288;6.056;2023-01-28T07:20:12;13.93;;;4.60;;
69750;SDS011;57335;52.288;6.056;2023-01-28T07:22:40;12.70;;;4.85;;
69750;SDS011;57335;52.288;6.056;2023-01-28T07:25:10;14.70;;;4.78;;
69750;SDS011;57335;52.288;6.056;2023-01-28T07:27:37;17.20;;;5.65;;
69750;SDS011;57335;52.288;6.056;2023-01-28T07:30:04;15.70;;;5.05;;
69750;SDS011;57335;52.288;6.056;2023-01-28T07:32:31;13.90;;;4.85;;
69750;SDS011;57335;52.288;6.056;2023-01-28T07:37:24;12.68;;;4.40;;
69750;SDS011;57335;52.288;6.056;2023-01-28T07:39:50;13.00;;;4.50;;
69750;SDS011;57335;52.288;6.056;2023-01-28T07:44:43;14.55;;;4.63;;
69750;SDS011;57335;52.288;6.056;2023-01-28T07:49:35;11.30;;;3.50;;
69750;SDS011;57335;52.288;6.056;2023-01-28T07:52:02;11.30;;;3.40;;
69750;SDS011;57335;52.288;6.056;2023-01-28T07:56:55;13.38;;;4.40;;
69750;SDS011;57335;52.288;6.056;2023-01-28T08:01:47;10.63;;;3.50;;
69750;SDS011;57335;52.288;6.056;2023-01-28T08:06:40;9.10;;;2.78;;
69750;SDS011;57335;52.288;6.056;2023-01-28T08:09:07;14.10;;;4.55;;
69750;SDS011;57335;52.288;6.056;2023-01-28T08:14:02;8.70;;;2.55;;
69750;SDS011;57335;52.288;6.056;2023-01-28T08:16:29;13.27;;;4.68;;
69750;SDS011;57335;52.288;6.056;2023-01-28T08:18:56;11.88;;;4.13;;
69750;SDS011;57335;52.288;6.056;2023-01-28T08:21:22;11.45;;;4.35;;
69750;SDS011;57335;52.288;6.056;2023-01-28T08:23:49;14.93;;;5.03;;
69750;SDS011;57335;52.288;6.056;2023-01-28T08:26:15;15.18;;;5.18;;
69750;SDS011;57335;52.288;6.056;2023-01-28T08:31:08;15.18;;;4.40;;
69750;SDS011;57335;52.288;6.056;2023-01-28T08:33:34;10.90;;;4.05;;
69750;SDS011;57335;52.288;6.056;2023-01-28T08:38:28;12.45;;;4.43;;
69750;SDS011;57335;52.288;6.056;2023-01-28T08:43:21;12.70;;;4.22;;
69750;SDS011;57335;52.288;6.056;2023-01-28T08:45:47;13.80;;;4.93;;
69750;SDS011;57335;52.288;6.056;2023-01-28T08:48:14;13.93;;;5.10;;
69750;SDS011;57335;52.288;6.056;2023-01-28T08:50:42;14.75;;;5.03;;
69750;SDS011;57335;52.288;6.056;2023-01-28T08:53:16;14.68;;;5.07;;
69750;SDS011;57335;52.288;6.056;2023-01-28T08:55:45;13.50;;;4.28;;
69750;SDS011;57335;52.288;6.056;2023-01-28T08:58:13;13.43;;;4.88;;
69750;SDS011;57335;52.288;6.056;2023-01-28T09:00:41;15.63;;;5.13;;
69750;SDS011;57335;52.288;6.056;2023-01-28T09:03:08;16.15;;;5.60;;
69750;SDS011;57335;52.288;6.056;2023-01-28T09:05:35;13.50;;;4.13;;
69750;SDS011;57335;52.288;6.056;2023-01-28T09:08:02;15.13;;;5.00;;
69750;SDS011;57335;52.288;6.056;2023-01-28T09:10:31;14.93;;;5.05;;
69750;SDS011;57335;52.288;6.056;2023-01-28T09:15:24;14.18;;;4.65;;
69750;SDS011;57335;52.288;6.056;2023-01-28T09:20:22;14.07;;;4.85;;
69750;SDS011;57335;52.288;6.056;2023-01-28T09:22:49;13.65;;;4.78;;
69750;SDS011;57335;52.288;6.056;2023-01-28T09:27:41;12.60;;;4.78;;
69750;SDS011;57335;52.288;6.056;2023-01-28T09:32:34;11.32;;;4.30;;
69750;SDS011;57335;52.288;6.056;2023-01-28T09:35:01;13.55;;;5.40;;
69750;SDS011;57335;52.288;6.056;2023-01-28T09:37:28;12.80;;;4.47;;
69750;SDS011;57335;52.288;6.056;2023-01-28T09:42:24;14.15;;;5.13;;
69750;SDS011;57335;52.288;6.056;2023-01-28T09:45:19;13.23;;;4.35;;
69750;SDS011;57335;52.288;6.056;2023-01-28T09:47:51;13.20;;;4.50;;
69750;SDS011;57335;52.288;6.056;2023-01-28T09:50:23;13.60;;;4.75;;
69750;SDS011;57335;52.288;6.056;2023-01-28T09:52:56;13.05;;;4.45;;
69750;SDS011;57335;52.288;6.056;2023-01-28T09:58:05;11.95;;;4.25;;
69750;SDS011;57335;52.288;6.056;2023-01-28T10:05:56;13.70;;;4.70;;
69750;SDS011;57335;52.288;6.056;2023-01-28T10:08:59;12.90;;;4.25;;
69750;SDS011;57335;52.288;6.056;2023-01-28T10:14:18;13.00;;;4.75;;
69750;SDS011;57335;52.288;6.056;2023-01-28T10:19:48;13.60;;;5.10;;
69750;SDS011;57335;52.288;6.056;2023-01-28T10:22:30;12.68;;;5.05;;
69750;SDS011;57335;52.288;6.056;2023-01-28T10:25:01;12.60;;;4.45;;
69750;SDS011;57335;52.288;6.056;2023-01-28T10:27:33;11.48;;;4.30;;
69750;SDS011;57335;52.288;6.056;2023-01-28T10:30:20;12.80;;;4.82;;
69750;SDS011;57335;52.288;6.056;2023-01-28T10:32:52;14.13;;;4.75;;
69750;SDS011;57335;52.288;6.056;2023-01-28T10:35:39;13.90;;;4.90;;
69750;SDS011;57335;52.288;6.056;2023-01-28T10:38:07;12.40;;;5.00;;
69750;SDS011;57335;52.288;6.056;2023-01-28T10:40:39;12.98;;;4.68;;
69750;SDS011;57335;52.288;6.056;2023-01-28T10:43:07;13.10;;;4.97;;
69750;SDS011;57335;52.288;6.056;2023-01-28T10:45:35;14.07;;;5.07;;
69750;SDS011;57335;52.288;6.056;2023-01-28T10:48:14;13.20;;;4.80;;
69750;SDS011;57335;52.288;6.056;2023-01-28T10:50:55;13.80;;;4.97;;
69750;SDS011;57335;52.288;6.056;2023-01-28T10:56:03;13.73;;;5.03;;
69750;SDS011;57335;52.288;6.056;2023-01-28T10:58:33;13.50;;;4.70;;
69750;SDS011;57335;52.288;6.056;2023-01-28T11:01:11;12.20;;;4.43;;
69750;SDS011;57335;52.288;6.056;2023-01-28T11:03:38;12.35;;;4.53;;
69750;SDS011;57335;52.288;6.056;2023-01-28T11:06:22;12.93;;;4.90;;
69750;SDS011;57335;52.288;6.056;2023-01-28T11:08:51;14.15;;;5.18;;
69750;SDS011;57335;52.288;6.056;2023-01-28T11:11:24;13.52;;;5.13;;
69750;SDS011;57335;52.288;6.056;2023-01-28T11:13:52;14.00;;;5.38;;
69750;SDS011;57335;52.288;6.056;2023-01-28T11:16:20;12.98;;;5.18;;
69750;SDS011;57335;52.288;6.056;2023-01-28T11:18:47;15.80;;;5.40;;
69750;SDS011;57335;52.288;6.056;2023-01-28T11:21:21;12.85;;;4.75;;
69750;SDS011;57335;52.288;6.056;2023-01-28T11:23:55;12.80;;;4.75;;
69750;SDS011;57335;52.288;6.056;2023-01-28T11:26:28;12.80;;;5.00;;
69750;SDS011;57335;52.288;6.056;2023-01-28T11:28:57;12.30;;;4.97;;
69750;SDS011;57335;52.288;6.056;2023-01-28T11:31:24;12.73;;;4.38;;
69750;SDS011;57335;52.288;6.056;2023-01-28T11:33:58;11.00;;;4.10;;
69750;SDS011;57335;52.288;6.056;2023-01-28T11:36:30;12.65;;;4.82;;
69750;SDS011;57335;52.288;6.056;2023-01-28T11:38:59;13.68;;;5.03;;
69750;SDS011;57335;52.288;6.056;2023-01-28T11:41:28;12.52;;;4.45;;
69750;SDS011;57335;52.288;6.056;2023-01-28T11:44:21;12.45;;;5.07;;
69750;SDS011;57335;52.288;6.056;2023-01-28T12:00:45;11.75;;;4.40;;
69750;SDS011;57335;52.288;6.056;2023-01-28T12:03:29;12.23;;;4.68;;
69750;SDS011;57335;52.288;6.056;2023-01-28T12:06:14;10.68;;;4.03;;
69750;SDS011;57335;52.288;6.056;2023-01-28T12:11:29;12.45;;;4.65;;
69750;SDS011;57335;52.288;6.056;2023-01-28T12:14:57;9.63;;;3.65;;
69750;SDS011;57335;52.288;6.056;2023-01-28T12:30:47;11.70;;;4.03;;
69750;SDS011;57335;52.288;6.056;2023-01-28T12:44:56;10.60;;;4.05;;
69750;SDS011;57335;52.288;6.056;2023-01-28T12:47:33;13.77;;;4.07;;
69750;SDS011;57335;52.288;6.056;2023-01-28T12:50:09;11.00;;;4.22;;
69750;SDS011;57335;52.288;6.056;2023-01-28T12:52:43;11.02;;;3.90;;
69750;SDS011;57335;52.288;6.056;2023-01-28T12:58:06;11.75;;;4.20;;
69750;SDS011;57335;52.288;6.056;2023-01-28T13:00:43;10.85;;;4.03;;
69750;SDS011;57335;52.288;6.056;2023-01-28T13:03:27;10.40;;;3.50;;
69750;SDS011;57335;52.288;6.056;2023-01-28T13:06:01;11.05;;;3.50;;
69750;SDS011;57335;52.288;6.056;2023-01-28T13:08:33;10.82;;;3.60;;
69750;SDS011;57335;52.288;6.056;2023-01-28T13:11:00;11.05;;;3.45;;
69750;SDS011;57335;52.288;6.056;2023-01-28T13:13:36;10.52;;;3.65;;
69750;SDS011;57335;52.288;6.056;2023-01-28T13:16:05;14.48;;;3.83;;
69750;SDS011;57335;52.288;6.056;2023-01-28T13:24:02;10.98;;;3.53;;
69750;SDS011;57335;52.288;6.056;2023-01-28T13:27:09;13.70;;;4.32;;
69750;SDS011;57335;52.288;6.056;2023-01-28T13:37:17;12.30;;;4.07;;
69750;SDS011;57335;52.288;6.056;2023-01-28T13:42:32;9.95;;;3.17;;
69750;SDS011;57335;52.288;6.056;2023-01-28T13:47:44;10.55;;;3.50;;
69750;SDS011;57335;52.288;6.056;2023-01-28T13:50:15;12.55;;;4.00;;
69750;SDS011;57335;52.288;6.056;2023-01-28T13:52:58;11.73;;;3.97;;
69750;SDS011;57335;52.288;6.056;2023-01-28T14:01:26;12.35;;;3.60;;
69750;SDS011;57335;52.288;6.056;2023-01-28T14:04:15;11.13;;;3.95;;
69750;SDS011;57335;52.288;6.056;2023-01-28T14:12:28;11.90;;;3.95;;
69750;SDS011;57335;52.288;6.056;2023-01-28T14:20:34;11.77;;;4.15;;
69750;SDS011;57335;52.288;6.056;2023-01-28T14:23:16;12.20;;;4.18;;
69750;SDS011;57335;52.288;6.056;2023-01-28T14:28:32;12.25;;;4.30;;
69750;SDS011;57335;52.288;6.056;2023-01-28T14:31:19;13.10;;;4.18;;
69750;SDS011;57335;52.288;6.056;2023-01-28T14:33:51;13.75;;;4.10;;
69750;SDS011;57335;52.288;6.056;2023-01-28T14:36:19;13.65;;;4.78;;
69750;SDS011;57335;52.288;6.056;2023-01-28T14:38:46;10.73;;;4.13;;
69750;SDS011;57335;52.288;6.056;2023-01-28T14:41:20;10.93;;;3.88;;
69750;SDS011;57335;52.288;6.056;2023-01-28T14:43:50;11.20;;;3.53;;
69750;SDS011;57335;52.288;6.056;2023-01-28T14:54:53;12.70;;;4.28;;
69750;SDS011;57335;52.288;6.056;2023-01-28T14:57:44;10.25;;;3.58;;
69750;SDS011;57335;52.288;6.056;2023-01-28T15:00:22;10.77;;;3.70;;
69750;SDS011;57335;52.288;6.056;2023-01-28T15:02:52;11.57;;;4.03;;
69750;SDS011;57335;52.288;6.056;2023-01-28T15:05:20;9.70;;;3.72;;
69750;SDS011;57335;52.288;6.056;2023-01-28T15:07:49;11.50;;;3.88;;
69750;SDS011;57335;52.288;6.056;2023-01-28T15:12:48;11.25;;;3.55;;
69750;SDS011;57335;52.288;6.056;2023-01-28T15:15:22;14.38;;;4.38;;
69750;SDS011;57335;52.288;6.056;2023-01-28T15:17:56;10.63;;;3.53;;
69750;SDS011;57335;52.288;6.056;2023-01-28T15:20:27;11.10;;;3.70;;
69750;SDS011;57335;52.288;6.056;2023-01-28T15:22:54;11.40;;;3.40;;
69750;SDS011;57335;52.288;6.056;2023-01-28T15:25:21;11.90;;;4.20;;
69750;SDS011;57335;52.288;6.056;2023-01-28T15:27:49;12.57;;;3.90;;
69750;SDS011;57335;52.288;6.056;2023-01-28T15:30:21;12.57;;;4.28;;
69750;SDS011;57335;52.288;6.056;2023-01-28T15:33:00;11.57;;;3.55;;
69750;SDS011;57335;52.288;6.056;2023-01-28T15:35:31;12.57;;;3.90;;
69750;SDS011;57335;52.288;6.056;2023-01-28T15:38:00;12.45;;;3.90;;
69750;SDS011;57335;52.288;6.056;2023-01-28T15:40:27;11.23;;;3.97;;
69750;SDS011;57335;52.288;6.056;2023-01-28T15:42:55;10.65;;;3.72;;
69750;SDS011;57335;52.288;6.056;2023-01-28T15:45:22;11.95;;;3.97;;
69750;SDS011;57335;52.288;6.056;2023-01-28T15:47:50;10.75;;;3.85;;
69750;SDS011;57335;52.288;6.056;2023-01-28T15:50:22;12.57;;;3.92;;
69750;SDS011;57335;52.288;6.056;2023-01-28T15:52:50;13.15;;;4.20;;
69750;SDS011;57335;52.288;6.056;2023-01-28T15:58:08;13.45;;;4.22;;
69750;SDS011;57335;52.288;6.056;2023-01-28T16:00:46;12.10;;;4.32;;
69750;SDS011;57335;52.288;6.056;2023-01-28T16:03:17;13.60;;;4.90;;
69750;SDS011;57335;52.288;6.056;2023-01-28T16:08:38;13.48;;;4.75;;
69750;SDS011;57335;52.288;6.056;2023-01-28T16:11:11;13.38;;;4.32;;
69750;SDS011;57335;52.288;6.056;2023-01-28T16:13:41;12.27;;;4.60;;
69750;SDS011;57335;52.288;6.056;2023-01-28T16:16:09;14.48;;;4.80;;
69750;SDS011;57335;52.288;6.056;2023-01-28T16:18:44;13.88;;;4.40;;
69750;SDS011;57335;52.288;6.056;2023-01-28T16:21:26;14.73;;;5.68;;
69750;SDS011;57335;52.288;6.056;2023-01-28T16:24:02;16.55;;;4.57;;
69750;SDS011;57335;52.288;6.056;2023-01-28T16:26:43;12.93;;;4.88;;
69750;SDS011;57335;52.288;6.056;2023-01-28T16:29:20;15.50;;;5.05;;
69750;SDS011;57335;52.288;6.056;2023-01-28T16:31:47;13.18;;;5.18;;
69750;SDS011;57335;52.288;6.056;2023-01-28T16:34:13;15.15;;;5.00;;
69750;SDS011;57335;52.288;6.056;2023-01-28T16:39:06;16.48;;;5.55;;
69750;SDS011;57335;52.288;6.056;2023-01-28T16:41:33;15.55;;;5.05;;
69750;SDS011;57335;52.288;6.056;2023-01-28T16:44:03;13.00;;;5.32;;
69750;SDS011;57335;52.288;6.056;2023-01-28T16:46:30;15.70;;;5.57;;
69750;SDS011;57335;52.288;6.056;2023-01-28T16:48:58;16.42;;;6.05;;
69750;SDS011;57335;52.288;6.056;2023-01-28T16:51:24;14.85;;;5.47;;
69750;SDS011;57335;52.288;6.056;2023-01-28T16:53:51;14.43;;;5.38;;
69750;SDS011;57335;52.288;6.056;2023-01-28T16:56:22;15.48;;;5.43;;
69750;SDS011;57335;52.288;6.056;2023-01-28T16:59:10;16.48;;;5.88;;
69750;SDS011;57335;52.288;6.056;2023-01-28T17:01:37;18.23;;;6.63;;
69750;SDS011;57335;52.288;6.056;2023-01-28T17:04:03;18.25;;;6.93;;
69750;SDS011;57335;52.288;6.056;2023-01-28T17:06:30;18.13;;;6.20;;
69750;SDS011;57335;52.288;6.056;2023-01-28T17:11:22;16.00;;;5.88;;
69750;SDS011;57335;52.288;6.056;2023-01-28T17:13:53;17.45;;;6.40;;
69750;SDS011;57335;52.288;6.056;2023-01-28T17:18:48;17.08;;;5.50;;
69750;SDS011;57335;52.288;6.056;2023-01-28T17:21:16;16.20;;;6.05;;
69750;SDS011;57335;52.288;6.056;2023-01-28T17:23:42;18.13;;;6.68;;
69750;SDS011;57335;52.288;6.056;2023-01-28T17:26:09;19.00;;;6.85;;
69750;SDS011;57335;52.288;6.056;2023-01-28T17:28:38;18.50;;;7.00;;
69750;SDS011;57335;52.288;6.056;2023-01-28T17:31:09;18.95;;;7.32;;
69750;SDS011;57335;52.288;6.056;2023-01-28T17:33:39;22.92;;;8.13;;
69750;SDS011;57335;52.288;6.056;2023-01-28T17:36:06;20.35;;;7.93;;
69750;SDS011;57335;52.288;6.056;2023-01-28T17:38:34;20.75;;;7.82;;
69750;SDS011;57335;52.288;6.056;2023-01-28T17:41:04;22.48;;;8.02;;
69750;SDS011;57335;52.288;6.056;2023-01-28T17:43:32;20.77;;;7.78;;
69750;SDS011;57335;52.288;6.056;2023-01-28T17:45:59;18.77;;;7.30;;
69750;SDS011;57335;52.288;6.056;2023-01-28T17:48:26;19.92;;;7.30;;
69750;SDS011;57335;52.288;6.056;2023-01-28T17:53:22;18.35;;;6.95;;
69750;SDS011;57335;52.288;6.056;2023-01-28T17:55:49;18.88;;;6.63;;
69750;SDS011;57335;52.288;6.056;2023-01-28T18:00:42;18.02;;;6.53;;
69750;SDS011;57335;52.288;6.056;2023-01-28T18:03:12;20.55;;;6.78;;
69750;SDS011;57335;52.288;6.056;2023-01-28T18:05:40;21.77;;;7.30;;
69750;SDS011;57335;52.288;6.056;2023-01-28T18:08:06;20.15;;;7.63;;
69750;SDS011;57335;52.288;6.056;2023-01-28T18:10:33;21.52;;;7.65;;
69750;SDS011;57335;52.288;6.056;2023-01-28T18:13:00;19.05;;;7.40;;
69750;SDS011;57335;52.288;6.056;2023-01-28T18:17:53;19.63;;;6.63;;
69750;SDS011;57335;52.288;6.056;2023-01-28T18:20:19;19.10;;;6.70;;
69750;SDS011;57335;52.288;6.056;2023-01-28T18:25:16;19.52;;;6.50;;
69750;SDS011;57335;52.288;6.056;2023-01-28T18:27:44;20.38;;;6.88;;
69750;SDS011;57335;52.288;6.056;2023-01-28T18:32:37;17.77;;;6.35;;
69750;SDS011;57335;52.288;6.056;2023-01-28T18:37:30;20.70;;;7.13;;
69750;SDS011;57335;52.288;6.056;2023-01-28T18:39:56;18.63;;;7.05;;
69750;SDS011;57335;52.288;6.056;2023-01-28T18:44:49;18.60;;;6.70;;
69750;SDS011;57335;52.288;6.056;2023-01-28T18:49:42;18.83;;;6.82;;
69750;SDS011;57335;52.288;6.056;2023-01-28T18:52:08;18.92;;;7.50;;
69750;SDS011;57335;52.288;6.056;2023-01-28T18:57:01;20.95;;;7.20;;
69750;SDS011;57335;52.288;6.056;2023-01-28T19:01:54;18.95;;;6.80;;
69750;SDS011;57335;52.288;6.056;2023-01-28T19:04:20;20.30;;;7.82;;
69750;SDS011;57335;52.288;6.056;2023-01-28T19:09:13;19.02;;;6.93;;
69750;SDS011;57335;52.288;6.056;2023-01-28T19:11:41;17.83;;;5.78;;
69750;SDS011;57335;52.288;6.056;2023-01-28T19:14:08;21.00;;;7.68;;
69750;SDS011;57335;52.288;6.056;2023-01-28T19:16:37;21.15;;;7.47;;
69750;SDS011;57335;52.288;6.056;2023-01-28T19:19:03;19.17;;;7.32;;
69750;SDS011;57335;52.288;6.056;2023-01-28T19:21:31;19.02;;;7.38;;
69750;SDS011;57335;52.288;6.056;2023-01-28T19:24:05;19.95;;;8.02;;
69750;SDS011;57335;52.288;6.056;2023-01-28T19:26:32;18.70;;;7.13;;
69750;SDS011;57335;52.288;6.056;2023-01-28T19:31:25;19.10;;;7.32;;
69750;SDS011;57335;52.288;6.056;2023-01-28T19:33:54;22.42;;;7.93;;
69750;SDS011;57335;52.288;6.056;2023-01-28T19:36:22;20.17;;;8.18;;
69750;SDS011;57335;52.288;6.056;2023-01-28T19:38:51;19.30;;;7.05;;
69750;SDS011;57335;52.288;6.056;2023-01-28T19:41:18;19.02;;;7.57;;
69750;SDS011;57335;52.288;6.056;2023-01-28T19:46:12;18.92;;;7.75;;
69750;SDS011;57335;52.288;6.056;2023-01-28T19:48:40;20.20;;;8.30;;
69750;SDS011;57335;52.288;6.056;2023-01-28T19:51:07;22.85;;;8.40;;